sensor_id;sensor_type;location;lat;lon;timestamp;P1;durP1;ratioP1;P2;durP2;ratioP2
4595;SDS011;2310;49.978;8.742;2022-10-16T00:02:03;7.03;;;3.10;;
4595;SDS011;2310;49.978;8.742;2022-10-16T00:06:04;4.10;;;2.57;;
4595;SDS011;2310;49.978;8.742;2022-10-16T00:10:06;6.30;;;3.13;;
4595;SDS011;2310;49.978;8.742;2022-10-16T00:14:13;4.23;;;2.53;;
4595;SDS011;2310;49.978;8.742;2022-10-16T00:18:13;4.27;;;3.10;;
4595;SDS011;2310;49.978;8.742;2022-10-16T00:22:15;4.30;;;2.13;;
4595;SDS011;2310;49.978;8.742;2022-10-16T00:26:16;4.47;;;2.60;;
4595;SDS011;2310;49.978;8.742;2022-10-16T00:30:18;3.83;;;1.93;;
4595;SDS011;2310;49.978;8.742;2022-10-16T00:34:19;6.50;;;2.37;;
4595;SDS011;2310;49.978;8.742;2022-10-16T00:38:20;4.60;;;2.17;;
4595;SDS011;2310;49.978;8.742;2022-10-16T00:42:22;4.07;;;2.23;;
4595;SDS011;2310;49.978;8.742;2022-10-16T00:50:37;4.00;;;2.30;;
4595;SDS011;2310;49.978;8.742;2022-10-16T00:54:40;4.40;;;2.10;;
4595;SDS011;2310;49.978;8.742;2022-10-16T00:58:41;3.10;;;1.50;;
4595;SDS011;2310;49.978;8.742;2022-10-16T01:02:43;3.87;;;1.83;;
4595;SDS011;2310;49.978;8.742;2022-10-16T01:11:15;3.40;;;1.80;;
4595;SDS011;2310;49.978;8.742;2022-10-16T01:15:23;3.13;;;1.50;;
4595;SDS011;2310;49.978;8.742;2022-10-16T01:19:44;4.70;;;1.70;;
4595;SDS011;2310;49.978;8.742;2022-10-16T01:28:14;3.73;;;1.80;;
4595;SDS011;2310;49.978;8.742;2022-10-16T01:32:32;2.80;;;1.30;;
4595;SDS011;2310;49.978;8.742;2022-10-16T01:36:40;3.40;;;1.27;;
4595;SDS011;2310;49.978;8.742;2022-10-16T01:40:50;2.53;;;1.33;;
4595;SDS011;2310;49.978;8.742;2022-10-16T01:44:56;8.30;;;1.50;;
4595;SDS011;2310;49.978;8.742;2022-10-16T01:49:00;2.37;;;0.93;;
4595;SDS011;2310;49.978;8.742;2022-10-16T01:53:03;4.33;;;1.80;;
4595;SDS011;2310;49.978;8.742;2022-10-16T01:57:06;5.23;;;1.53;;
4595;SDS011;2310;49.978;8.742;2022-10-16T02:01:09;2.43;;;1.03;;
4595;SDS011;2310;49.978;8.742;2022-10-16T02:05:18;2.80;;;1.37;;
4595;SDS011;2310;49.978;8.742;2022-10-16T02:09:23;3.53;;;1.07;;
4595;SDS011;2310;49.978;8.742;2022-10-16T02:17:45;3.23;;;1.53;;
4595;SDS011;2310;49.978;8.742;2022-10-16T02:21:49;3.10;;;1.37;;
4595;SDS011;2310;49.978;8.742;2022-10-16T02:25:57;2.93;;;1.30;;
4595;SDS011;2310;49.978;8.742;2022-10-16T02:30:07;4.03;;;1.30;;
4595;SDS011;2310;49.978;8.742;2022-10-16T02:34:14;3.10;;;1.40;;
4595;SDS011;2310;49.978;8.742;2022-10-16T02:38:17;3.17;;;1.40;;
4595;SDS011;2310;49.978;8.742;2022-10-16T02:42:19;3.00;;;1.77;;
4595;SDS011;2310;49.978;8.742;2022-10-16T02:46:20;3.37;;;1.80;;
4595;SDS011;2310;49.978;8.742;2022-10-16T02:50:22;2.70;;;1.30;;
4595;SDS011;2310;49.978;8.742;2022-10-16T02:54:23;3.40;;;1.37;;
4595;SDS011;2310;49.978;8.742;2022-10-16T02:58:24;2.77;;;1.50;;
4595;SDS011;2310;49.978;8.742;2022-10-16T03:02:26;3.63;;;1.63;;
4595;SDS011;2310;49.978;8.742;2022-10-16T03:06:27;6.30;;;2.30;;
4595;SDS011;2310;49.978;8.742;2022-10-16T03:10:28;5.77;;;1.40;;
4595;SDS011;2310;49.978;8.742;2022-10-16T03:14:29;3.30;;;1.80;;
4595;SDS011;2310;49.978;8.742;2022-10-16T03:18:30;4.23;;;2.00;;
4595;SDS011;2310;49.978;8.742;2022-10-16T03:22:31;2.80;;;1.70;;
4595;SDS011;2310;49.978;8.742;2022-10-16T03:26:33;5.20;;;1.80;;
4595;SDS011;2310;49.978;8.742;2022-10-16T03:30:34;4.27;;;2.33;;
4595;SDS011;2310;49.978;8.742;2022-10-16T03:34:35;4.83;;;1.93;;
4595;SDS011;2310;49.978;8.742;2022-10-16T03:38:36;4.40;;;2.30;;
4595;SDS011;2310;49.978;8.742;2022-10-16T03:42:38;7.20;;;2.53;;
4595;SDS011;2310;49.978;8.742;2022-10-16T03:46:39;4.77;;;2.80;;
4595;SDS011;2310;49.978;8.742;2022-10-16T03:50:40;5.63;;;2.60;;
4595;SDS011;2310;49.978;8.742;2022-10-16T03:54:41;4.30;;;3.03;;
4595;SDS011;2310;49.978;8.742;2022-10-16T03:58:42;4.87;;;2.30;;
4595;SDS011;2310;49.978;8.742;2022-10-16T04:02:44;4.50;;;2.40;;
4595;SDS011;2310;49.978;8.742;2022-10-16T04:06:47;5.63;;;2.53;;
4595;SDS011;2310;49.978;8.742;2022-10-16T04:10:48;6.20;;;2.50;;
4595;SDS011;2310;49.978;8.742;2022-10-16T04:14:49;7.23;;;2.40;;
4595;SDS011;2310;49.978;8.742;2022-10-16T04:18:51;3.70;;;2.57;;
4595;SDS011;2310;49.978;8.742;2022-10-16T04:22:52;4.90;;;2.73;;
4595;SDS011;2310;49.978;8.742;2022-10-16T04:26:53;8.03;;;3.10;;
4595;SDS011;2310;49.978;8.742;2022-10-16T04:30:54;8.80;;;2.60;;
4595;SDS011;2310;49.978;8.742;2022-10-16T04:34:55;3.63;;;2.50;;
4595;SDS011;2310;49.978;8.742;2022-10-16T04:38:57;4.37;;;2.47;;
4595;SDS011;2310;49.978;8.742;2022-10-16T04:42:58;8.47;;;3.60;;
4595;SDS011;2310;49.978;8.742;2022-10-16T04:47:00;6.20;;;3.57;;
4595;SDS011;2310;49.978;8.742;2022-10-16T04:51:01;5.33;;;3.60;;
4595;SDS011;2310;49.978;8.742;2022-10-16T04:55:03;4.80;;;3.53;;
4595;SDS011;2310;49.978;8.742;2022-10-16T04:59:05;4.73;;;3.80;;
4595;SDS011;2310;49.978;8.742;2022-10-16T05:03:06;5.00;;;3.67;;
4595;SDS011;2310;49.978;8.742;2022-10-16T05:07:09;7.13;;;4.60;;
4595;SDS011;2310;49.978;8.742;2022-10-16T05:11:10;5.67;;;4.10;;
4595;SDS011;2310;49.978;8.742;2022-10-16T05:15:12;5.30;;;4.80;;
4595;SDS011;2310;49.978;8.742;2022-10-16T05:19:13;4.93;;;4.40;;
4595;SDS011;2310;49.978;8.742;2022-10-16T05:23:16;5.10;;;4.40;;
4595;SDS011;2310;49.978;8.742;2022-10-16T05:27:17;5.20;;;4.00;;
4595;SDS011;2310;49.978;8.742;2022-10-16T05:31:21;6.20;;;4.70;;
4595;SDS011;2310;49.978;8.742;2022-10-16T05:35:22;4.80;;;4.13;;
4595;SDS011;2310;49.978;8.742;2022-10-16T05:39:24;5.17;;;4.07;;
4595;SDS011;2310;49.978;8.742;2022-10-16T05:43:26;4.77;;;4.27;;
4595;SDS011;2310;49.978;8.742;2022-10-16T05:47:28;6.43;;;4.17;;
4595;SDS011;2310;49.978;8.742;2022-10-16T05:51:30;6.40;;;5.03;;
4595;SDS011;2310;49.978;8.742;2022-10-16T05:55:31;9.90;;;4.73;;
4595;SDS011;2310;49.978;8.742;2022-10-16T05:59:32;7.60;;;4.10;;
4595;SDS011;2310;49.978;8.742;2022-10-16T06:03:34;5.47;;;4.20;;
4595;SDS011;2310;49.978;8.742;2022-10-16T06:07:35;10.13;;;8.63;;
4595;SDS011;2310;49.978;8.742;2022-10-16T06:11:37;6.83;;;6.00;;
4595;SDS011;2310;49.978;8.742;2022-10-16T06:15:38;5.87;;;4.67;;
4595;SDS011;2310;49.978;8.742;2022-10-16T06:19:42;7.20;;;4.03;;
4595;SDS011;2310;49.978;8.742;2022-10-16T06:23:43;8.00;;;4.13;;
4595;SDS011;2310;49.978;8.742;2022-10-16T06:27:46;6.73;;;4.37;;
4595;SDS011;2310;49.978;8.742;2022-10-16T06:31:47;8.20;;;4.13;;
4595;SDS011;2310;49.978;8.742;2022-10-16T06:35:49;5.13;;;3.53;;
4595;SDS011;2310;49.978;8.742;2022-10-16T06:39:50;5.40;;;4.70;;
4595;SDS011;2310;49.978;8.742;2022-10-16T06:43:54;5.70;;;3.80;;
4595;SDS011;2310;49.978;8.742;2022-10-16T06:47:56;5.30;;;4.80;;
4595;SDS011;2310;49.978;8.742;2022-10-16T06:52:03;5.37;;;4.63;;
4595;SDS011;2310;49.978;8.742;2022-10-16T06:56:12;13.60;;;4.97;;
4595;SDS011;2310;49.978;8.742;2022-10-16T07:00:15;5.63;;;4.33;;
4595;SDS011;2310;49.978;8.742;2022-10-16T07:04:16;5.77;;;4.23;;
4595;SDS011;2310;49.978;8.742;2022-10-16T07:08:18;6.10;;;4.57;;
4595;SDS011;2310;49.978;8.742;2022-10-16T07:12:19;7.60;;;5.00;;
4595;SDS011;2310;49.978;8.742;2022-10-16T07:16:21;6.30;;;4.40;;
4595;SDS011;2310;49.978;8.742;2022-10-16T07:20:25;5.70;;;4.23;;
4595;SDS011;2310;49.978;8.742;2022-10-16T07:24:26;5.33;;;4.47;;
4595;SDS011;2310;49.978;8.742;2022-10-16T07:28:27;5.63;;;3.90;;
4595;SDS011;2310;49.978;8.742;2022-10-16T07:32:29;8.50;;;4.53;;
4595;SDS011;2310;49.978;8.742;2022-10-16T07:36:30;5.70;;;4.77;;
4595;SDS011;2310;49.978;8.742;2022-10-16T07:40:32;10.67;;;5.90;;
4595;SDS011;2310;49.978;8.742;2022-10-16T07:44:33;9.40;;;8.50;;
4595;SDS011;2310;49.978;8.742;2022-10-16T07:48:34;7.50;;;5.07;;
4595;SDS011;2310;49.978;8.742;2022-10-16T07:52:36;6.47;;;4.93;;
4595;SDS011;2310;49.978;8.742;2022-10-16T07:56:37;7.10;;;4.80;;
4595;SDS011;2310;49.978;8.742;2022-10-16T08:00:40;5.50;;;4.30;;
4595;SDS011;2310;49.978;8.742;2022-10-16T08:04:41;5.20;;;4.07;;
4595;SDS011;2310;49.978;8.742;2022-10-16T08:08:43;5.13;;;4.07;;
4595;SDS011;2310;49.978;8.742;2022-10-16T08:12:44;4.63;;;3.33;;
4595;SDS011;2310;49.978;8.742;2022-10-16T08:16:45;5.40;;;4.30;;
4595;SDS011;2310;49.978;8.742;2022-10-16T08:20:46;6.40;;;4.70;;
4595;SDS011;2310;49.978;8.742;2022-10-16T08:24:48;5.23;;;3.73;;
4595;SDS011;2310;49.978;8.742;2022-10-16T08:28:49;5.40;;;3.60;;
4595;SDS011;2310;49.978;8.742;2022-10-16T08:32:52;6.03;;;3.73;;
4595;SDS011;2310;49.978;8.742;2022-10-16T08:36:54;5.50;;;2.90;;
4595;SDS011;2310;49.978;8.742;2022-10-16T08:40:57;4.40;;;3.50;;
4595;SDS011;2310;49.978;8.742;2022-10-16T08:49:12;4.90;;;3.20;;
4595;SDS011;2310;49.978;8.742;2022-10-16T08:53:15;5.30;;;3.63;;
4595;SDS011;2310;49.978;8.742;2022-10-16T08:57:20;6.40;;;4.53;;
4595;SDS011;2310;49.978;8.742;2022-10-16T09:01:25;5.17;;;3.00;;
4595;SDS011;2310;49.978;8.742;2022-10-16T09:10:11;4.53;;;3.33;;
4595;SDS011;2310;49.978;8.742;2022-10-16T09:14:33;5.30;;;3.20;;
4595;SDS011;2310;49.978;8.742;2022-10-16T09:18:48;5.20;;;2.87;;
4595;SDS011;2310;49.978;8.742;2022-10-16T09:27:16;4.43;;;2.73;;
4595;SDS011;2310;49.978;8.742;2022-10-16T09:31:18;5.57;;;3.47;;
4595;SDS011;2310;49.978;8.742;2022-10-16T09:35:27;9.43;;;4.90;;
4595;SDS011;2310;49.978;8.742;2022-10-16T09:39:45;10.37;;;8.30;;
4595;SDS011;2310;49.978;8.742;2022-10-16T09:43:52;5.47;;;4.07;;
4595;SDS011;2310;49.978;8.742;2022-10-16T09:48:10;5.17;;;3.67;;
4595;SDS011;2310;49.978;8.742;2022-10-16T09:52:13;7.90;;;3.60;;
4595;SDS011;2310;49.978;8.742;2022-10-16T09:56:23;16.07;;;13.40;;
4595;SDS011;2310;49.978;8.742;2022-10-16T10:00:26;4.90;;;3.60;;
4595;SDS011;2310;49.978;8.742;2022-10-16T10:04:36;5.23;;;3.07;;
4595;SDS011;2310;49.978;8.742;2022-10-16T10:08:33;5.63;;;4.17;;
4595;SDS011;2310;49.978;8.742;2022-10-16T10:12:34;7.60;;;3.47;;
4595;SDS011;2310;49.978;8.742;2022-10-16T10:16:37;4.20;;;3.30;;
4595;SDS011;2310;49.978;8.742;2022-10-16T10:20:39;5.80;;;2.90;;
4595;SDS011;2310;49.978;8.742;2022-10-16T10:24:41;3.83;;;2.40;;
4595;SDS011;2310;49.978;8.742;2022-10-16T10:37:00;3.70;;;2.67;;
4595;SDS011;2310;49.978;8.742;2022-10-16T11:02:26;5.03;;;3.47;;
4595;SDS011;2310;49.978;8.742;2022-10-16T11:10:44;3.60;;;2.60;;
4595;SDS011;2310;49.978;8.742;2022-10-16T11:19:39;4.23;;;2.90;;
4595;SDS011;2310;49.978;8.742;2022-10-16T11:23:42;4.93;;;2.53;;
4595;SDS011;2310;49.978;8.742;2022-10-16T11:28:12;5.17;;;4.20;;
4595;SDS011;2310;49.978;8.742;2022-10-16T11:32:25;13.10;;;11.80;;
4595;SDS011;2310;49.978;8.742;2022-10-16T11:36:38;3.77;;;2.70;;
4595;SDS011;2310;49.978;8.742;2022-10-16T11:40:42;4.10;;;2.40;;
4595;SDS011;2310;49.978;8.742;2022-10-16T11:49:15;3.90;;;2.07;;
4595;SDS011;2310;49.978;8.742;2022-10-16T11:57:39;3.63;;;2.50;;
4595;SDS011;2310;49.978;8.742;2022-10-16T12:01:51;3.57;;;2.07;;
4595;SDS011;2310;49.978;8.742;2022-10-16T12:06:11;3.00;;;2.30;;
4595;SDS011;2310;49.978;8.742;2022-10-16T12:10:29;4.10;;;2.10;;
4595;SDS011;2310;49.978;8.742;2022-10-16T12:14:34;3.47;;;2.13;;
4595;SDS011;2310;49.978;8.742;2022-10-16T12:18:39;2.97;;;2.10;;
4595;SDS011;2310;49.978;8.742;2022-10-16T12:22:49;3.77;;;2.60;;
4595;SDS011;2310;49.978;8.742;2022-10-16T12:26:55;4.33;;;2.20;;
4595;SDS011;2310;49.978;8.742;2022-10-16T12:35:02;2.97;;;2.13;;
4595;SDS011;2310;49.978;8.742;2022-10-16T12:39:05;5.50;;;2.90;;
4595;SDS011;2310;49.978;8.742;2022-10-16T12:43:12;3.83;;;2.87;;
4595;SDS011;2310;49.978;8.742;2022-10-16T12:47:50;2.80;;;1.87;;
4595;SDS011;2310;49.978;8.742;2022-10-16T12:51:36;3.60;;;2.20;;
4595;SDS011;2310;49.978;8.742;2022-10-16T13:09:35;3.80;;;3.03;;
4595;SDS011;2310;49.978;8.742;2022-10-16T13:30:24;5.17;;;2.70;;
4595;SDS011;2310;49.978;8.742;2022-10-16T13:34:30;4.60;;;2.50;;
4595;SDS011;2310;49.978;8.742;2022-10-16T13:38:32;4.23;;;2.47;;
4595;SDS011;2310;49.978;8.742;2022-10-16T13:42:35;5.97;;;3.90;;
4595;SDS011;2310;49.978;8.742;2022-10-16T13:46:37;5.47;;;3.70;;
4595;SDS011;2310;49.978;8.742;2022-10-16T13:50:38;4.53;;;3.70;;
4595;SDS011;2310;49.978;8.742;2022-10-16T13:54:39;5.10;;;3.90;;
4595;SDS011;2310;49.978;8.742;2022-10-16T13:58:42;3.20;;;2.50;;
4595;SDS011;2310;49.978;8.742;2022-10-16T14:02:43;6.43;;;3.13;;
4595;SDS011;2310;49.978;8.742;2022-10-16T14:06:46;5.70;;;2.60;;
4595;SDS011;2310;49.978;8.742;2022-10-16T14:10:51;6.43;;;3.33;;
4595;SDS011;2310;49.978;8.742;2022-10-16T14:15:00;8.40;;;5.30;;
4595;SDS011;2310;49.978;8.742;2022-10-16T14:19:02;9.10;;;8.03;;
4595;SDS011;2310;49.978;8.742;2022-10-16T14:23:21;10.03;;;5.50;;
4595;SDS011;2310;49.978;8.742;2022-10-16T14:27:31;5.67;;;3.70;;
4595;SDS011;2310;49.978;8.742;2022-10-16T14:31:34;4.80;;;3.57;;
4595;SDS011;2310;49.978;8.742;2022-10-16T14:35:38;5.27;;;3.50;;
4595;SDS011;2310;49.978;8.742;2022-10-16T14:39:40;4.70;;;3.23;;
4595;SDS011;2310;49.978;8.742;2022-10-16T14:43:42;7.63;;;3.77;;
4595;SDS011;2310;49.978;8.742;2022-10-16T14:47:48;3.63;;;3.03;;
4595;SDS011;2310;49.978;8.742;2022-10-16T14:51:51;7.27;;;3.87;;
4595;SDS011;2310;49.978;8.742;2022-10-16T14:55:52;5.63;;;2.73;;
4595;SDS011;2310;49.978;8.742;2022-10-16T14:59:54;5.60;;;4.20;;
4595;SDS011;2310;49.978;8.742;2022-10-16T15:03:55;4.60;;;4.20;;
4595;SDS011;2310;49.978;8.742;2022-10-16T15:07:56;6.23;;;5.47;;
4595;SDS011;2310;49.978;8.742;2022-10-16T15:11:58;5.57;;;3.27;;
4595;SDS011;2310;49.978;8.742;2022-10-16T15:15:59;5.40;;;3.33;;
4595;SDS011;2310;49.978;8.742;2022-10-16T15:20:00;5.47;;;3.60;;
4595;SDS011;2310;49.978;8.742;2022-10-16T15:24:01;4.00;;;3.13;;
4595;SDS011;2310;49.978;8.742;2022-10-16T15:28:03;5.20;;;3.60;;
4595;SDS011;2310;49.978;8.742;2022-10-16T15:32:05;4.37;;;3.97;;
4595;SDS011;2310;49.978;8.742;2022-10-16T15:36:06;5.80;;;3.50;;
4595;SDS011;2310;49.978;8.742;2022-10-16T15:40:08;5.10;;;3.57;;
4595;SDS011;2310;49.978;8.742;2022-10-16T15:44:10;4.40;;;3.37;;
4595;SDS011;2310;49.978;8.742;2022-10-16T15:48:12;5.33;;;3.37;;
4595;SDS011;2310;49.978;8.742;2022-10-16T15:52:16;5.07;;;2.93;;
4595;SDS011;2310;49.978;8.742;2022-10-16T15:56:17;6.83;;;4.30;;
4595;SDS011;2310;49.978;8.742;2022-10-16T16:00:18;5.53;;;4.83;;
4595;SDS011;2310;49.978;8.742;2022-10-16T16:04:25;4.80;;;4.10;;
4595;SDS011;2310;49.978;8.742;2022-10-16T16:08:28;7.40;;;4.03;;
4595;SDS011;2310;49.978;8.742;2022-10-16T16:12:29;8.30;;;6.73;;
4595;SDS011;2310;49.978;8.742;2022-10-16T16:16:30;9.47;;;8.57;;
4595;SDS011;2310;49.978;8.742;2022-10-16T16:20:33;7.30;;;6.40;;
4595;SDS011;2310;49.978;8.742;2022-10-16T16:24:35;7.87;;;5.97;;
4595;SDS011;2310;49.978;8.742;2022-10-16T16:28:36;5.87;;;5.27;;
4595;SDS011;2310;49.978;8.742;2022-10-16T16:32:37;5.37;;;4.60;;
4595;SDS011;2310;49.978;8.742;2022-10-16T16:36:39;9.33;;;4.63;;
4595;SDS011;2310;49.978;8.742;2022-10-16T16:40:40;6.73;;;4.90;;
4595;SDS011;2310;49.978;8.742;2022-10-16T16:44:41;8.93;;;6.20;;
4595;SDS011;2310;49.978;8.742;2022-10-16T16:48:43;11.37;;;7.90;;
4595;SDS011;2310;49.978;8.742;2022-10-16T16:52:45;9.57;;;6.37;;
4595;SDS011;2310;49.978;8.742;2022-10-16T16:56:46;8.00;;;5.43;;
4595;SDS011;2310;49.978;8.742;2022-10-16T17:00:47;6.73;;;5.97;;
4595;SDS011;2310;49.978;8.742;2022-10-16T17:04:50;9.00;;;8.10;;
4595;SDS011;2310;49.978;8.742;2022-10-16T17:08:51;7.80;;;5.60;;
4595;SDS011;2310;49.978;8.742;2022-10-16T17:12:53;6.63;;;6.03;;
4595;SDS011;2310;49.978;8.742;2022-10-16T17:16:54;7.90;;;5.63;;
4595;SDS011;2310;49.978;8.742;2022-10-16T17:20:58;6.33;;;5.73;;
4595;SDS011;2310;49.978;8.742;2022-10-16T17:25:04;9.43;;;6.03;;
4595;SDS011;2310;49.978;8.742;2022-10-16T17:29:09;6.30;;;5.70;;
4595;SDS011;2310;49.978;8.742;2022-10-16T17:33:12;6.80;;;4.57;;
4595;SDS011;2310;49.978;8.742;2022-10-16T17:37:13;7.67;;;5.50;;
4595;SDS011;2310;49.978;8.742;2022-10-16T17:41:18;11.67;;;4.40;;
4595;SDS011;2310;49.978;8.742;2022-10-16T17:45:20;7.40;;;6.40;;
4595;SDS011;2310;49.978;8.742;2022-10-16T17:49:22;6.80;;;5.63;;
4595;SDS011;2310;49.978;8.742;2022-10-16T17:53:25;6.40;;;5.63;;
4595;SDS011;2310;49.978;8.742;2022-10-16T17:57:26;6.10;;;5.40;;
4595;SDS011;2310;49.978;8.742;2022-10-16T18:01:29;7.40;;;6.57;;
4595;SDS011;2310;49.978;8.742;2022-10-16T18:05:36;13.53;;;6.43;;
4595;SDS011;2310;49.978;8.742;2022-10-16T18:09:37;6.60;;;5.80;;
4595;SDS011;2310;49.978;8.742;2022-10-16T18:13:40;9.43;;;6.17;;
4595;SDS011;2310;49.978;8.742;2022-10-16T18:17:42;9.30;;;6.47;;
4595;SDS011;2310;49.978;8.742;2022-10-16T18:21:43;9.97;;;6.27;;
4595;SDS011;2310;49.978;8.742;2022-10-16T18:25:48;7.60;;;6.83;;
4595;SDS011;2310;49.978;8.742;2022-10-16T18:29:50;7.47;;;6.17;;
4595;SDS011;2310;49.978;8.742;2022-10-16T18:33:54;8.90;;;6.20;;
4595;SDS011;2310;49.978;8.742;2022-10-16T18:37:55;7.90;;;6.40;;
4595;SDS011;2310;49.978;8.742;2022-10-16T18:41:58;9.30;;;5.93;;
4595;SDS011;2310;49.978;8.742;2022-10-16T18:46:01;12.90;;;9.10;;
4595;SDS011;2310;49.978;8.742;2022-10-16T18:50:05;11.43;;;9.00;;
4595;SDS011;2310;49.978;8.742;2022-10-16T18:54:10;11.27;;;9.30;;
4595;SDS011;2310;49.978;8.742;2022-10-16T18:58:12;11.30;;;10.30;;
4595;SDS011;2310;49.978;8.742;2022-10-16T19:02:13;11.10;;;10.03;;
4595;SDS011;2310;49.978;8.742;2022-10-16T19:06:15;9.87;;;8.97;;
4595;SDS011;2310;49.978;8.742;2022-10-16T19:10:16;9.30;;;8.40;;
4595;SDS011;2310;49.978;8.742;2022-10-16T19:14:18;8.40;;;7.60;;
4595;SDS011;2310;49.978;8.742;2022-10-16T19:18:21;8.77;;;7.70;;
4595;SDS011;2310;49.978;8.742;2022-10-16T19:22:24;8.90;;;7.97;;
4595;SDS011;2310;49.978;8.742;2022-10-16T19:26:31;8.70;;;7.07;;
4595;SDS011;2310;49.978;8.742;2022-10-16T19:30:35;7.27;;;6.53;;
4595;SDS011;2310;49.978;8.742;2022-10-16T19:34:42;7.23;;;6.63;;
4595;SDS011;2310;49.978;8.742;2022-10-16T19:38:45;8.97;;;8.00;;
4595;SDS011;2310;49.978;8.742;2022-10-16T19:42:47;7.80;;;6.27;;
4595;SDS011;2310;49.978;8.742;2022-10-16T19:46:48;7.77;;;6.90;;
4595;SDS011;2310;49.978;8.742;2022-10-16T19:50:49;7.87;;;6.33;;
4595;SDS011;2310;49.978;8.742;2022-10-16T19:54:51;6.37;;;5.67;;
4595;SDS011;2310;49.978;8.742;2022-10-16T19:58:58;11.83;;;10.60;;
4595;SDS011;2310;49.978;8.742;2022-10-16T20:03:00;11.27;;;7.50;;
4595;SDS011;2310;49.978;8.742;2022-10-16T20:07:03;8.17;;;7.47;;
4595;SDS011;2310;49.978;8.742;2022-10-16T20:11:04;8.93;;;7.90;;
4595;SDS011;2310;49.978;8.742;2022-10-16T20:15:08;7.63;;;6.90;;
4595;SDS011;2310;49.978;8.742;2022-10-16T20:19:10;7.17;;;6.47;;
4595;SDS011;2310;49.978;8.742;2022-10-16T20:23:11;11.33;;;6.37;;
4595;SDS011;2310;49.978;8.742;2022-10-16T20:27:12;8.63;;;6.50;;
4595;SDS011;2310;49.978;8.742;2022-10-16T20:31:15;8.37;;;5.83;;
4595;SDS011;2310;49.978;8.742;2022-10-16T20:35:20;6.10;;;5.50;;
4595;SDS011;2310;49.978;8.742;2022-10-16T20:39:21;5.93;;;5.33;;
4595;SDS011;2310;49.978;8.742;2022-10-16T20:43:22;9.27;;;6.03;;
4595;SDS011;2310;49.978;8.742;2022-10-16T20:47:24;6.80;;;5.00;;
4595;SDS011;2310;49.978;8.742;2022-10-16T20:51:26;7.87;;;5.80;;
4595;SDS011;2310;49.978;8.742;2022-10-16T20:55:29;6.60;;;5.60;;
4595;SDS011;2310;49.978;8.742;2022-10-16T20:59:30;7.03;;;5.50;;
4595;SDS011;2310;49.978;8.742;2022-10-16T21:03:32;8.17;;;6.20;;
4595;SDS011;2310;49.978;8.742;2022-10-16T21:07:33;8.63;;;5.83;;
4595;SDS011;2310;49.978;8.742;2022-10-16T21:11:35;8.07;;;6.57;;
4595;SDS011;2310;49.978;8.742;2022-10-16T21:15:37;11.60;;;6.20;;
4595;SDS011;2310;49.978;8.742;2022-10-16T21:19:38;9.33;;;5.30;;
4595;SDS011;2310;49.978;8.742;2022-10-16T21:23:39;6.30;;;5.70;;
4595;SDS011;2310;49.978;8.742;2022-10-16T21:27:40;10.77;;;6.20;;
4595;SDS011;2310;49.978;8.742;2022-10-16T21:31:42;6.70;;;4.70;;
4595;SDS011;2310;49.978;8.742;2022-10-16T21:35:43;5.87;;;5.27;;
4595;SDS011;2310;49.978;8.742;2022-10-16T21:39:45;7.17;;;4.87;;
4595;SDS011;2310;49.978;8.742;2022-10-16T21:43:46;8.07;;;4.87;;
4595;SDS011;2310;49.978;8.742;2022-10-16T21:47:47;7.17;;;4.63;;
4595;SDS011;2310;49.978;8.742;2022-10-16T21:51:49;10.10;;;4.97;;
4595;SDS011;2310;49.978;8.742;2022-10-16T21:55:51;7.70;;;4.20;;
4595;SDS011;2310;49.978;8.742;2022-10-16T21:59:52;5.10;;;4.07;;
4595;SDS011;2310;49.978;8.742;2022-10-16T22:03:53;5.17;;;3.43;;
4595;SDS011;2310;49.978;8.742;2022-10-16T22:07:55;4.70;;;3.10;;
4595;SDS011;2310;49.978;8.742;2022-10-16T22:11:56;7.60;;;3.27;;
4595;SDS011;2310;49.978;8.742;2022-10-16T22:15:57;6.73;;;4.60;;
4595;SDS011;2310;49.978;8.742;2022-10-16T22:19:59;5.03;;;3.97;;
4595;SDS011;2310;49.978;8.742;2022-10-16T22:24:00;4.30;;;3.70;;
4595;SDS011;2310;49.978;8.742;2022-10-16T22:28:02;6.93;;;3.77;;
4595;SDS011;2310;49.978;8.742;2022-10-16T22:32:04;7.23;;;3.93;;
4595;SDS011;2310;49.978;8.742;2022-10-16T22:36:06;5.90;;;3.80;;
4595;SDS011;2310;49.978;8.742;2022-10-16T22:40:10;5.20;;;3.30;;
4595;SDS011;2310;49.978;8.742;2022-10-16T22:44:12;5.73;;;3.97;;
4595;SDS011;2310;49.978;8.742;2022-10-16T22:48:13;5.90;;;4.10;;
4595;SDS011;2310;49.978;8.742;2022-10-16T22:52:14;7.73;;;4.27;;
4595;SDS011;2310;49.978;8.742;2022-10-16T22:56:16;9.40;;;4.77;;
4595;SDS011;2310;49.978;8.742;2022-10-16T23:00:19;6.53;;;4.13;;
4595;SDS011;2310;49.978;8.742;2022-10-16T23:04:20;9.43;;;3.97;;
4595;SDS011;2310;49.978;8.742;2022-10-16T23:08:21;5.90;;;4.00;;
4595;SDS011;2310;49.978;8.742;2022-10-16T23:12:23;6.70;;;4.63;;
4595;SDS011;2310;49.978;8.742;2022-10-16T23:16:26;5.50;;;4.47;;
4595;SDS011;2310;49.978;8.742;2022-10-16T23:20:27;7.63;;;3.20;;
4595;SDS011;2310;49.978;8.742;2022-10-16T23:24:29;7.47;;;4.43;;
4595;SDS011;2310;49.978;8.742;2022-10-16T23:28:31;4.57;;;3.93;;
4595;SDS011;2310;49.978;8.742;2022-10-16T23:32:32;6.43;;;3.60;;
4595;SDS011;2310;49.978;8.742;2022-10-16T23:36:34;4.80;;;4.00;;
4595;SDS011;2310;49.978;8.742;2022-10-16T23:40:35;4.83;;;3.50;;
4595;SDS011;2310;49.978;8.742;2022-10-16T23:44:36;4.80;;;3.57;;
4595;SDS011;2310;49.978;8.742;2022-10-16T23:48:38;8.63;;;3.87;;
4595;SDS011;2310;49.978;8.742;2022-10-16T23:52:39;8.57;;;4.70;;
4595;SDS011;2310;49.978;8.742;2022-10-16T23:56:40;5.53;;;3.70;;
